Time;durP1;ratioP1;P1;durP2;ratioP2;P2;SDS_P1;SDS_P2;PMS_P1;PMS_P2;Temp;Humidity;BMP_temperature;BMP_pressure;BME280_temperature;BME280_humidity;BME280_pressure;Samples;Min_cycle;Max_cycle;Signal;HPM_P1;HPM_P2
2022/11/23 00:01:47;;;;;;;48.25;24.75;;;;;;;;;;4908611;28;20037;-71
2022/11/23 00:04:24;;;;;;;49.60;23.40;;;;;;;;;;4926984;28;20170;-71
2022/11/23 00:07:01;;;;;;;49.15;22.88;;;;;;;;;;4965504;28;20039;-71
2022/11/23 00:09:30;;;;;;;49.80;22.30;;;;;;;;;;4932466;28;20030;-75
2022/11/23 00:11:56;;;;;;;50.80;22.73;;;;;;;;;;4979939;28;20046;-76
2022/11/23 00:14:21;;;;;;;46.40;22.27;;;;;;;;;;4992723;28;20033;-74
2022/11/23 00:16:53;;;;;;;51.42;22.73;;;;;;;;;;4957780;28;20115;-76
2022/11/23 00:19:28;;;;;;;40.20;17.75;;;;;;;;;;4965847;28;20072;-78
2022/11/23 00:22:22;;;;;;;37.95;17.73;;;;;;;;;;4935084;28;20042;-77
2022/11/23 00:25:00;;;;;;;36.92;18.83;;;;;;;;;;4939750;28;20032;-75
2022/11/23 00:27:35;;;;;;;40.78;21.30;;;;;;;;;;4948619;28;21206;-72
2022/11/23 00:30:35;;;;;;;45.33;19.23;;;;;;;;;;4924506;28;20858;-75
2022/11/23 00:33:33;;;;;;;44.08;20.45;;;;;;;;;;4889203;28;20048;-74
2022/11/23 00:36:06;;;;;;;42.90;22.20;;;;;;;;;;4965143;28;20045;-77
2022/11/23 00:38:53;;;;;;;42.70;24.20;;;;;;;;;;4926324;28;20049;-76
2022/11/23 00:41:56;;;;;;;46.25;25.00;;;;;;;;;;4913028;28;20042;-75
2022/11/23 00:44:44;;;;;;;42.42;20.95;;;;;;;;;;4953399;28;20139;-75
2022/11/23 00:47:48;;;;;;;48.60;23.42;;;;;;;;;;4897487;28;20042;-75
2022/11/23 00:50:31;;;;;;;40.53;20.85;;;;;;;;;;4887609;28;20042;-71
2022/11/23 00:53:13;;;;;;;;;;;;;;;;;;;;;
2022/11/23 00:55:59;;;;;;;47.10;23.30;;;;;;;;;;4926714;28;20047;-70
2022/11/23 00:58:41;;;;;;;49.83;25.23;;;;;;;;;;4931545;28;20559;-70
2022/11/23 01:01:56;;;;;;;44.08;20.25;;;;;;;;;;4944930;28;20036;-70
2022/11/23 01:04:40;;;;;;;39.55;21.70;;;;;;;;;;4960287;28;20055;-71
2022/11/23 01:07:37;;;;;;;45.13;21.45;;;;;;;;;;4944339;28;20119;-71
2022/11/23 01:10:16;;;;;;;47.60;22.35;;;;;;;;;;4921348;28;20059;-75
2022/11/23 01:13:12;;;;;;;38.93;20.57;;;;;;;;;;4931807;28;20164;-75
2022/11/23 01:16:01;;;;;;;45.22;22.17;;;;;;;;;;4885266;28;20174;-75
2022/11/23 01:18:38;;;;;;;42.17;24.95;;;;;;;;;;4907249;28;20090;-75
2022/11/23 01:21:13;;;;;;;52.08;26.42;;;;;;;;;;4981394;28;20131;-76
2022/11/23 01:23:51;;;;;;;55.92;27.75;;;;;;;;;;4992059;28;20129;-76
2022/11/23 01:26:27;;;;;;;54.72;28.92;;;;;;;;;;4913238;28;20124;-75
2022/11/23 01:29:02;;;;;;;49.30;26.83;;;;;;;;;;4930446;28;20047;-75
2022/11/23 01:31:30;;;;;;;50.72;31.45;;;;;;;;;;4972736;28;20041;-76
2022/11/23 01:33:57;;;;;;;54.47;32.00;;;;;;;;;;4973107;28;20127;-75
2022/11/23 01:37:00;;;;;;;48.85;25.52;;;;;;;;;;4950327;28;20104;-75
2022/11/23 01:39:57;;;;;;;39.33;24.65;;;;;;;;;;4944829;28;20037;-75
2022/11/23 01:46:02;;;;;;;50.17;29.40;;;;;;;;;;4947944;28;20037;-74
2022/11/23 01:48:46;;;;;;;43.58;26.17;;;;;;;;;;4967112;28;20091;-78
2022/11/23 01:51:55;;;;;;;;;;;;;;;;;;;;;
2022/11/23 01:54:28;;;;;;;50.15;27.40;;;;;;;;;;4983224;28;20777;-75
2022/11/23 01:57:05;;;;;;;41.95;21.77;;;;;;;;;;4957075;28;20042;-75
2022/11/23 01:59:35;;;;;;;47.03;22.50;;;;;;;;;;4983457;28;20048;-75
2022/11/23 02:02:06;;;;;;;42.40;23.38;;;;;;;;;;4954777;28;20119;-76
2022/11/23 02:04:45;;;;;;;49.88;24.55;;;;;;;;;;4957652;28;21198;-76
2022/11/23 02:07:29;;;;;;;;;;;;;;;;;;;;;
2022/11/23 02:10:12;;;;;;;38.67;23.38;;;;;;;;;;4953202;28;20622;-75
2022/11/23 02:12:40;;;;;;;48.47;24.77;;;;;;;;;;4975342;28;22343;-75
2022/11/23 02:15:18;;;;;;;46.45;24.77;;;;;;;;;;4984720;28;20041;-75
2022/11/23 02:17:53;;;;;;;43.13;23.75;;;;;;;;;;4986124;28;20037;-74
2022/11/23 02:20:27;;;;;;;40.25;22.52;;;;;;;;;;4992575;28;20040;-74
2022/11/23 02:23:11;;;;;;;35.70;20.52;;;;;;;;;;4971033;28;20040;-74
2022/11/23 02:25:47;;;;;;;33.22;20.05;;;;;;;;;;4915544;28;20588;-74
2022/11/23 02:28:20;;;;;;;38.85;24.55;;;;;;;;;;4965135;28;20035;-75
2022/11/23 02:30:50;;;;;;;43.75;24.77;;;;;;;;;;4955112;28;20072;-76
2022/11/23 02:33:24;;;;;;;46.88;25.75;;;;;;;;;;4969367;28;20106;-73
2022/11/23 02:36:28;;;;;;;;;;;;;;;;;;;;;
2022/11/23 02:39:13;;;;;;;48.65;24.45;;;;;;;;;;4988337;28;20040;-73
2022/11/23 02:41:47;;;;;;;46.35;24.85;;;;;;;;;;4938065;28;20743;-74
2022/11/23 02:44:33;;;;;;;38.25;21.95;;;;;;;;;;4974121;28;20032;-74
2022/11/23 02:47:02;;;;;;;47.22;24.48;;;;;;;;;;5014232;28;22235;-73
2022/11/23 02:49:33;;;;;;;39.15;23.88;;;;;;;;;;4992046;28;20104;-72
2022/11/23 02:52:02;;;;;;;46.40;24.10;;;;;;;;;;4924020;28;20069;-72
2022/11/23 02:55:18;;;;;;;37.88;23.90;;;;;;;;;;4970233;28;20043;-72
2022/11/23 02:57:28;;;;;;;37.92;22.70;;;;;;;;;;4989255;28;20052;-73
2022/11/23 02:59:58;;;;;;;42.53;24.02;;;;;;;;;;4942144;28;20851;-73
2022/11/23 03:02:43;;;;;;;42.50;26.48;;;;;;;;;;4977977;28;20038;-73
2022/11/23 03:05:18;;;;;;;46.53;23.73;;;;;;;;;;4935729;28;20852;-72
2022/11/23 03:07:56;;;;;;;42.72;25.35;;;;;;;;;;4917175;28;20130;-72
2022/11/23 03:10:25;;;;;;;47.42;25.63;;;;;;;;;;4963297;28;21091;-72
2022/11/23 03:12:56;;;;;;;51.58;25.80;;;;;;;;;;5017039;28;20044;-72
2022/11/23 03:15:27;;;;;;;39.10;22.55;;;;;;;;;;5008836;28;20810;-73
2022/11/23 03:17:59;;;;;;;38.92;22.02;;;;;;;;;;5023076;28;20037;-73
2022/11/23 03:20:28;;;;;;;47.83;25.10;;;;;;;;;;4993103;28;20048;-73
2022/11/23 03:23:11;;;;;;;53.67;27.60;;;;;;;;;;4964793;28;20135;-73
2022/11/23 03:26:00;;;;;;;45.22;24.58;;;;;;;;;;4969732;28;20047;-73
2022/11/23 03:28:38;;;;;;;39.78;22.52;;;;;;;;;;4960729;28;20917;-73
2022/11/23 03:31:09;;;;;;;47.72;25.45;;;;;;;;;;4978146;28;20036;-73
2022/11/23 03:33:41;;;;;;;55.35;33.05;;;;;;;;;;4968535;28;20114;-73
2022/11/23 03:36:23;;;;;;;45.33;24.65;;;;;;;;;;4968599;28;20044;-73
2022/11/23 03:39:11;;;;;;;;;;;;;;;;;;;;;
2022/11/23 03:41:53;;;;;;;51.03;24.23;;;;;;;;;;4933139;28;20037;-73
2022/11/23 03:44:28;;;;;;;41.17;21.63;;;;;;;;;;4917509;28;20073;-71
2022/11/23 03:47:08;;;;;;;39.67;23.10;;;;;;;;;;4963123;28;20036;-72
2022/11/23 03:49:43;;;;;;;40.85;19.17;;;;;;;;;;4946323;28;20116;-72
2022/11/23 03:52:25;;;;;;;;;;;;;;;;;;;;;
2022/11/23 03:55:00;;;;;;;40.97;17.10;;;;;;;;;;4917591;28;20066;-72
2022/11/23 03:57:44;;;;;;;40.85;19.25;;;;;;;;;;4924091;28;20045;-72
2022/11/23 04:00:19;;;;;;;42.05;20.27;;;;;;;;;;4932278;28;20971;-72
2022/11/23 04:03:15;;;;;;;39.03;18.42;;;;;;;;;;4971195;28;20049;-72
2022/11/23 04:05:53;;;;;;;33.25;17.40;;;;;;;;;;4965181;28;20568;-72
2022/11/23 04:08:19;;;;;;;34.85;19.77;;;;;;;;;;4905524;28;21882;-72
2022/11/23 04:11:05;;;;;;;40.92;20.95;;;;;;;;;;4964068;28;20033;-72
2022/11/23 04:13:39;;;;;;;46.42;26.77;;;;;;;;;;4911749;28;20045;-74
2022/11/23 04:16:37;;;;;;;50.72;29.45;;;;;;;;;;4977062;28;20601;-74
2022/11/23 04:19:14;;;;;;;45.72;28.02;;;;;;;;;;4980809;28;20039;-74
2022/11/23 04:21:54;;;;;;;;;;;;;;;;;;;;;
2022/11/23 04:24:57;;;;;;;41.60;25.17;;;;;;;;;;4953836;28;20029;-73
2022/11/23 04:27:41;;;;;;;39.95;22.60;;;;;;;;;;4920797;28;20140;-71
2022/11/23 04:30:43;;;;;;;36.00;23.40;;;;;;;;;;4932662;28;20157;-71
2022/11/23 04:33:17;;;;;;;39.55;25.58;;;;;;;;;;4942716;28;20049;-72
2022/11/23 04:36:04;;;;;;;38.60;24.83;;;;;;;;;;4903505;28;20940;-72
2022/11/23 04:38:56;;;;;;;41.63;26.20;;;;;;;;;;4934633;28;20165;-72
2022/11/23 04:41:36;;;;;;;50.95;29.77;;;;;;;;;;4994659;28;20037;-71
2022/11/23 04:44:31;;;;;;;50.85;29.10;;;;;;;;;;4927280;28;20036;-71
2022/11/23 04:47:26;;;;;;;41.17;26.73;;;;;;;;;;4940741;28;20103;-71
2022/11/23 04:50:40;;;;;;;48.33;27.77;;;;;;;;;;4863715;28;25140;-72
2022/11/23 04:53:23;;;;;;;41.80;26.48;;;;;;;;;;4951899;28;20049;-72
2022/11/23 04:55:54;;;;;;;45.08;28.75;;;;;;;;;;4957631;28;20066;-72
2022/11/23 04:58:30;;;;;;;48.95;32.20;;;;;;;;;;4951219;28;20598;-72
2022/11/23 05:01:03;;;;;;;43.92;30.67;;;;;;;;;;4917310;28;20201;-72
2022/11/23 05:06:49;;;;;;;52.97;34.08;;;;;;;;;;4967253;28;20083;-71
2022/11/23 05:09:39;;;;;;;43.47;28.98;;;;;;;;;;4976853;28;20089;-71
2022/11/23 05:12:22;;;;;;;45.85;28.40;;;;;;;;;;4960105;28;20052;-71
2022/11/23 05:15:03;;;;;;;44.50;27.05;;;;;;;;;;4917822;28;20073;-72
2022/11/23 05:17:35;;;;;;;42.20;26.05;;;;;;;;;;4967979;28;25353;-72
2022/11/23 05:20:18;;;;;;;43.22;26.60;;;;;;;;;;4966645;28;20122;-71
2022/11/23 05:22:51;;;;;;;41.80;27.02;;;;;;;;;;4958543;28;20147;-72
2022/11/23 05:25:27;;;;;;;40.47;24.15;;;;;;;;;;4953175;28;20872;-71
2022/11/23 05:28:19;;;;;;;41.88;25.02;;;;;;;;;;4982114;28;20647;-71
2022/11/23 05:30:57;;;;;;;43.15;26.58;;;;;;;;;;4973613;28;20686;-71
2022/11/23 05:33:40;;;;;;;44.00;24.92;;;;;;;;;;4933255;28;20232;-71
2022/11/23 05:36:27;;;;;;;45.50;26.10;;;;;;;;;;4922683;28;20045;-71
2022/11/23 05:39:09;;;;;;;38.30;24.35;;;;;;;;;;4962175;28;20797;-71
2022/11/23 05:41:57;;;;;;;36.58;24.02;;;;;;;;;;4937166;28;20037;-71
2022/11/23 05:44:29;;;;;;;41.45;25.50;;;;;;;;;;4901147;28;20582;-71
2022/11/23 05:47:13;;;;;;;42.10;23.77;;;;;;;;;;4953947;28;20045;-71
2022/11/23 05:49:45;;;;;;;39.40;23.25;;;;;;;;;;4928149;28;20069;-71
2022/11/23 05:52:22;;;;;;;39.20;25.45;;;;;;;;;;4931449;28;20044;-71
2022/11/23 05:54:56;;;;;;;37.63;24.17;;;;;;;;;;4952152;28;20029;-71
2022/11/23 05:57:27;;;;;;;39.85;23.52;;;;;;;;;;4997689;28;20032;-71
2022/11/23 06:00:13;;;;;;;35.65;23.13;;;;;;;;;;4990020;28;20261;-71
2022/11/23 06:02:56;;;;;;;33.75;20.60;;;;;;;;;;4918972;28;20033;-70
2022/11/23 06:05:47;;;;;;;32.53;20.30;;;;;;;;;;4946295;28;20036;-70
2022/11/23 06:08:32;;;;;;;34.80;21.65;;;;;;;;;;4925606;28;20061;-71
2022/11/23 06:11:43;;;;;;;33.70;20.50;;;;;;;;;;4933762;28;20773;-70
2022/11/23 06:14:14;;;;;;;32.45;19.92;;;;;;;;;;4943980;28;21315;-70
2022/11/23 06:16:45;;;;;;;36.53;20.05;;;;;;;;;;5003684;28;20063;-70
2022/11/23 06:19:38;;;;;;;40.40;23.67;;;;;;;;;;4968467;28;20121;-75
2022/11/23 06:22:12;;;;;;;45.30;27.13;;;;;;;;;;4952978;28;20036;-73
2022/11/23 06:24:37;;;;;;;48.33;27.57;;;;;;;;;;4936019;28;21052;-73
2022/11/23 06:27:06;;;;;;;45.03;28.65;;;;;;;;;;4979817;28;20025;-74
2022/11/23 06:29:32;;;;;;;43.58;26.83;;;;;;;;;;5024274;28;20029;-74
2022/11/23 06:31:58;;;;;;;42.25;25.08;;;;;;;;;;4998556;28;20033;-74
2022/11/23 06:34:23;;;;;;;35.55;21.67;;;;;;;;;;4994706;28;20136;-74
2022/11/23 06:36:48;;;;;;;42.60;24.40;;;;;;;;;;4999087;28;20102;-75
2022/11/23 06:39:17;;;;;;;43.40;24.48;;;;;;;;;;4991094;28;20040;-74
2022/11/23 06:41:43;;;;;;;54.10;26.40;;;;;;;;;;5000735;28;20036;-74
2022/11/23 06:44:10;;;;;;;46.22;27.88;;;;;;;;;;4996517;28;20073;-74
2022/11/23 06:46:36;;;;;;;60.88;31.02;;;;;;;;;;4994116;28;20107;-74
2022/11/23 06:49:01;;;;;;;54.58;28.17;;;;;;;;;;5028258;28;20037;-73
2022/11/23 06:51:27;;;;;;;32.38;19.30;;;;;;;;;;4998680;28;20504;-74
2022/11/23 06:53:52;;;;;;;34.90;18.52;;;;;;;;;;5016332;28;20105;-74
2022/11/23 06:56:18;;;;;;;63.45;32.90;;;;;;;;;;5002507;28;20037;-72
2022/11/23 06:58:43;;;;;;;62.42;32.05;;;;;;;;;;5002192;28;22076;-73
2022/11/23 07:01:11;;;;;;;42.13;23.35;;;;;;;;;;4990159;28;20075;-73
2022/11/23 07:03:39;;;;;;;47.65;25.73;;;;;;;;;;4996106;28;20048;-73
2022/11/23 07:06:06;;;;;;;35.33;20.38;;;;;;;;;;4999633;28;21872;-70
2022/11/23 07:08:31;;;;;;;43.47;22.90;;;;;;;;;;4998546;28;20029;-70
2022/11/23 07:11:04;;;;;;;45.50;21.98;;;;;;;;;;4995722;28;20041;-70
2022/11/23 07:13:29;;;;;;;72.53;34.05;;;;;;;;;;4978412;28;20054;-70
2022/11/23 07:15:58;;;;;;;67.43;34.53;;;;;;;;;;5009454;28;20041;-70
2022/11/23 07:18:32;;;;;;;60.03;33.22;;;;;;;;;;4975402;28;20041;-70
2022/11/23 07:20:58;;;;;;;55.22;29.17;;;;;;;;;;4983929;28;21140;-70
2022/11/23 07:23:24;;;;;;;50.17;28.90;;;;;;;;;;5000314;28;20095;-71
2022/11/23 07:25:50;;;;;;;42.13;25.40;;;;;;;;;;4998551;28;20047;-70
2022/11/23 07:28:15;;;;;;;49.42;29.55;;;;;;;;;;5000898;28;20033;-70
2022/11/23 07:30:41;;;;;;;52.13;29.98;;;;;;;;;;4999310;28;20152;-70
2022/11/23 07:33:09;;;;;;;64.40;31.85;;;;;;;;;;4978728;28;20050;-71
2022/11/23 07:35:35;;;;;;;65.55;33.88;;;;;;;;;;4990374;28;20087;-74
2022/11/23 07:38:01;;;;;;;53.30;27.65;;;;;;;;;;4977100;28;20047;-74
2022/11/23 07:40:26;;;;;;;66.28;33.10;;;;;;;;;;4977769;28;20041;-70
2022/11/23 07:42:52;;;;;;;69.22;32.60;;;;;;;;;;4978239;28;20824;-71
2022/11/23 07:45:18;;;;;;;58.72;30.30;;;;;;;;;;4973270;28;20129;-70
2022/11/23 07:47:44;;;;;;;48.95;29.48;;;;;;;;;;4976723;28;22120;-70
2022/11/23 07:50:10;;;;;;;53.10;29.25;;;;;;;;;;4957661;28;20639;-70
2022/11/23 07:52:36;;;;;;;55.05;26.33;;;;;;;;;;4979754;28;20709;-70
2022/11/23 07:55:05;;;;;;;50.40;24.33;;;;;;;;;;4969396;28;20099;-70
2022/11/23 07:57:34;;;;;;;;;;;;;;;;;;4944037;28;20058;-71
2022/11/23 08:00:11;;;;;;;61.40;24.42;;;;;;;;;;4972112;28;20808;-70
2022/11/23 08:02:43;;;;;;;47.85;19.40;;;;;;;;;;4947033;28;20038;-70
2022/11/23 08:05:12;;;;;;;39.90;14.60;;;;;;;;;;4976132;28;20032;-70
2022/11/23 08:07:37;;;;;;;34.13;12.82;;;;;;;;;;4998179;28;20049;-70
2022/11/23 08:10:09;;;;;;;34.47;11.63;;;;;;;;;;4977538;28;20589;-71
2022/11/23 08:12:35;;;;;;;30.88;10.77;;;;;;;;;;5005854;28;21010;-70
2022/11/23 08:15:00;;;;;;;30.15;10.43;;;;;;;;;;5001128;28;20820;-70
2022/11/23 08:17:36;;;;;;;29.42;9.90;;;;;;;;;;4982614;28;20762;-70
2022/11/23 08:20:02;;;;;;;27.13;8.55;;;;;;;;;;4994319;28;20045;-71
2022/11/23 08:22:28;;;;;;;34.85;11.68;;;;;;;;;;4979740;28;20080;-71
2022/11/23 08:24:53;;;;;;;32.28;9.80;;;;;;;;;;4979690;28;20402;-70
2022/11/23 08:27:19;;;;;;;34.80;11.55;;;;;;;;;;4980170;28;20033;-71
2022/11/23 08:29:46;;;;;;;32.83;11.07;;;;;;;;;;4981230;28;20138;-71
2022/11/23 08:32:12;;;;;;;34.33;14.00;;;;;;;;;;4982179;28;20933;-71
2022/11/23 08:34:37;;;;;;;28.73;8.98;;;;;;;;;;4979279;28;20510;-70
2022/11/23 08:37:04;;;;;;;30.85;9.23;;;;;;;;;;4979637;28;20026;-71
2022/11/23 08:39:31;;;;;;;30.27;10.00;;;;;;;;;;4980438;28;20583;-71
2022/11/23 08:41:57;;;;;;;23.70;8.10;;;;;;;;;;4980051;28;20164;-70
2022/11/23 08:44:25;;;;;;;36.35;10.55;;;;;;;;;;4965300;28;20137;-69
2022/11/23 08:46:50;;;;;;;29.70;9.18;;;;;;;;;;5009132;28;20795;-69
2022/11/23 08:49:16;;;;;;;35.88;10.57;;;;;;;;;;4976466;28;20030;-70
2022/11/23 08:51:42;;;;;;;26.63;6.93;;;;;;;;;;4971449;28;20038;-69
2022/11/23 08:54:10;;;;;;;31.65;7.18;;;;;;;;;;4993040;28;20180;-69
2022/11/23 08:56:38;;;;;;;35.63;9.32;;;;;;;;;;4957412;28;20136;-69
2022/11/23 08:59:04;;;;;;;32.25;10.63;;;;;;;;;;4983780;28;20110;-69
2022/11/23 09:01:32;;;;;;;31.58;9.35;;;;;;;;;;4982696;28;20043;-69
2022/11/23 09:03:57;;;;;;;38.72;11.15;;;;;;;;;;5003805;28;20039;-71
2022/11/23 09:06:27;;;;;;;37.13;8.10;;;;;;;;;;4989131;28;20042;-72
2022/11/23 09:08:53;;;;;;;24.25;5.55;;;;;;;;;;4967568;28;20034;-70
2022/11/23 09:11:22;;;;;;;22.17;5.15;;;;;;;;;;4980781;28;20495;-70
2022/11/23 09:13:50;;;;;;;23.77;5.20;;;;;;;;;;4979443;28;20104;-70
2022/11/23 09:16:15;;;;;;;18.17;5.20;;;;;;;;;;4979881;28;20764;-70
2022/11/23 09:18:41;;;;;;;19.95;5.32;;;;;;;;;;4978132;28;20036;-69
2022/11/23 09:21:08;;;;;;;23.25;5.88;;;;;;;;;;4981421;28;20546;-69
2022/11/23 09:23:34;;;;;;;20.20;6.72;;;;;;;;;;4981876;28;20042;-69
2022/11/23 09:26:00;;;;;;;27.75;8.35;;;;;;;;;;5002017;28;20032;-69
2022/11/23 09:28:27;;;;;;;23.33;7.30;;;;;;;;;;4979150;28;20061;-69
2022/11/23 09:30:53;;;;;;;21.20;6.05;;;;;;;;;;4980943;28;20132;-69
2022/11/23 09:33:19;;;;;;;20.52;6.45;;;;;;;;;;4980858;28;20314;-70
2022/11/23 09:35:44;;;;;;;20.00;6.35;;;;;;;;;;4981691;28;20029;-69
2022/11/23 09:38:09;;;;;;;26.33;7.45;;;;;;;;;;4979987;28;20033;-70
2022/11/23 09:40:36;;;;;;;20.20;5.60;;;;;;;;;;4979084;28;20516;-71
2022/11/23 09:43:20;;;;;;;19.80;6.10;;;;;;;;;;4981467;28;20030;-69
2022/11/23 09:45:49;;;;;;;26.42;7.18;;;;;;;;;;4981817;28;20033;-69
2022/11/23 09:48:33;;;;;;;26.70;7.03;;;;;;;;;;4997276;28;20329;-69
2022/11/23 09:51:01;;;;;;;22.05;5.57;;;;;;;;;;4979516;28;20089;-69
2022/11/23 09:53:31;;;;;;;21.10;5.82;;;;;;;;;;4981178;28;20763;-71
2022/11/23 09:56:03;;;;;;;32.35;7.53;;;;;;;;;;4979213;28;20044;-70
2022/11/23 09:58:32;;;;;;;22.08;5.43;;;;;;;;;;4981598;28;20332;-70
2022/11/23 10:01:01;;;;;;;22.25;5.05;;;;;;;;;;4982382;28;20471;-69
2022/11/23 10:03:28;;;;;;;22.30;5.60;;;;;;;;;;4989587;28;20112;-70
2022/11/23 10:05:59;;;;;;;21.95;5.72;;;;;;;;;;4982112;28;20139;-70
2022/11/23 10:08:28;;;;;;;25.08;5.80;;;;;;;;;;4980978;28;20038;-70
2022/11/23 10:11:12;;;;;;;15.15;5.25;;;;;;;;;;4979805;28;20435;-69
2022/11/23 10:13:43;;;;;;;21.98;4.43;;;;;;;;;;5012787;28;20049;-70
2022/11/23 10:16:11;;;;;;;21.45;5.57;;;;;;;;;;4998701;28;20773;-69
2022/11/23 10:18:45;;;;;;;19.15;4.88;;;;;;;;;;5002028;28;20033;-68
2022/11/23 10:21:30;;;;;;;16.65;5.00;;;;;;;;;;5000289;28;20037;-69
2022/11/23 10:24:05;;;;;;;20.80;5.30;;;;;;;;;;5000857;28;20209;-70
2022/11/23 10:26:38;;;;;;;24.65;5.72;;;;;;;;;;4999963;28;20061;-69
2022/11/23 10:29:24;;;;;;;27.98;8.02;;;;;;;;;;4985454;28;20041;-69
2022/11/23 10:31:52;;;;;;;24.80;5.13;;;;;;;;;;4978159;28;20036;-70
2022/11/23 10:34:36;;;;;;;25.40;5.68;;;;;;;;;;4977416;28;20045;-69
2022/11/23 10:37:02;;;;;;;19.30;5.53;;;;;;;;;;4979509;28;20485;-69
2022/11/23 10:39:30;;;;;;;21.73;5.78;;;;;;;;;;4980459;28;20029;-70
2022/11/23 10:41:59;;;;;;;22.95;4.93;;;;;;;;;;4975632;28;21150;-69
2022/11/23 10:44:24;;;;;;;16.25;4.97;;;;;;;;;;4994459;28;20527;-68
2022/11/23 10:46:50;;;;;;;18.42;5.40;;;;;;;;;;4995257;28;20498;-70
2022/11/23 10:49:17;;;;;;;26.38;4.72;;;;;;;;;;5001941;28;20045;-69
2022/11/23 10:51:56;;;;;;;18.40;4.68;;;;;;;;;;5002279;28;20574;-69
2022/11/23 10:54:23;;;;;;;19.10;4.30;;;;;;;;;;4993437;28;20041;-69
2022/11/23 10:56:50;;;;;;;15.75;3.78;;;;;;;;;;4994436;28;22746;-68
2022/11/23 10:59:25;;;;;;;16.95;3.65;;;;;;;;;;4980753;28;20034;-71
2022/11/23 11:02:01;;;;;;;18.55;4.82;;;;;;;;;;4980643;28;20532;-71
2022/11/23 11:04:29;;;;;;;23.38;5.82;;;;;;;;;;4976229;28;20040;-71
2022/11/23 11:07:14;;;;;;;25.95;6.57;;;;;;;;;;4976318;28;20053;-71
2022/11/23 11:09:47;;;;;;;19.98;4.75;;;;;;;;;;5011810;28;20601;-70
2022/11/23 11:12:17;;;;;;;26.85;7.35;;;;;;;;;;4979209;28;20038;-72
2022/11/23 11:14:53;;;;;;;30.23;5.72;;;;;;;;;;4980130;28;20060;-70
2022/11/23 11:17:26;;;;;;;22.30;5.28;;;;;;;;;;4974670;28;20036;-71
2022/11/23 11:19:56;;;;;;;20.33;4.82;;;;;;;;;;4971499;28;20045;-72
2022/11/23 11:22:28;;;;;;;19.77;5.65;;;;;;;;;;4994352;28;20128;-70
2022/11/23 11:24:54;;;;;;;20.35;4.53;;;;;;;;;;5013762;28;20048;-71
2022/11/23 11:27:21;;;;;;;22.63;6.47;;;;;;;;;;4999205;28;20029;-71
2022/11/23 11:29:51;;;;;;;16.13;4.43;;;;;;;;;;4998244;28;20736;-71
2022/11/23 11:32:22;;;;;;;22.23;6.32;;;;;;;;;;4999024;28;20722;-71
2022/11/23 11:35:14;;;;;;;31.83;5.63;;;;;;;;;;5013984;28;20029;-73
2022/11/23 11:37:43;;;;;;;17.63;4.93;;;;;;;;;;4974019;28;20617;-70
2022/11/23 11:40:15;;;;;;;16.58;4.68;;;;;;;;;;4983433;28;20106;-70
2022/11/23 11:42:58;;;;;;;21.27;8.30;;;;;;;;;;4980332;28;20619;-71
2022/11/23 11:45:26;;;;;;;27.00;10.07;;;;;;;;;;4980816;28;20533;-71
2022/11/23 11:47:57;;;;;;;19.23;5.60;;;;;;;;;;4972675;28;20483;-70
2022/11/23 11:50:25;;;;;;;21.35;5.13;;;;;;;;;;5006758;28;20034;-70
2022/11/23 11:52:52;;;;;;;19.20;5.85;;;;;;;;;;4979664;28;20180;-69
2022/11/23 11:55:21;;;;;;;24.33;5.45;;;;;;;;;;4980747;28;20038;-69
2022/11/23 11:58:10;;;;;;;15.32;4.78;;;;;;;;;;4979053;28;20021;-70
2022/11/23 12:00:36;;;;;;;15.50;4.60;;;;;;;;;;4973859;28;20204;-71
2022/11/23 12:03:21;;;;;;;18.20;4.93;;;;;;;;;;5010780;28;20521;-69
2022/11/23 12:05:47;;;;;;;17.65;4.32;;;;;;;;;;4979258;28;20739;-71
2022/11/23 12:08:31;;;;;;;18.25;4.15;;;;;;;;;;4979211;28;20074;-69
2022/11/23 12:10:58;;;;;;;18.15;5.68;;;;;;;;;;4978995;28;20232;-70
2022/11/23 12:13:30;;;;;;;31.63;8.52;;;;;;;;;;4958038;28;20273;-71
2022/11/23 12:16:09;;;;;;;21.77;7.18;;;;;;;;;;4973264;28;20052;-70
2022/11/23 12:18:53;;;;;;;17.48;5.57;;;;;;;;;;4980260;28;20456;-69
2022/11/23 12:21:26;;;;;;;15.68;5.00;;;;;;;;;;4979490;28;20041;-71
2022/11/23 12:23:57;;;;;;;24.73;6.10;;;;;;;;;;4978632;28;20092;-69
2022/11/23 12:26:30;;;;;;;22.63;7.60;;;;;;;;;;4980404;28;20044;-72
2022/11/23 12:28:56;;;;;;;17.45;4.95;;;;;;;;;;4980460;28;20303;-70
2022/11/23 12:31:38;;;;;;;18.10;4.70;;;;;;;;;;4976961;28;20547;-69
2022/11/23 12:34:05;;;;;;;;;;;;;;;;;;4996143;28;20135;-68
2022/11/23 12:36:36;;;;;;;16.60;5.50;;;;;;;;;;4980112;28;20382;-70
2022/11/23 12:39:12;;;;;;;17.67;5.22;;;;;;;;;;4980540;28;20123;-71
2022/11/23 12:41:47;;;;;;;19.40;5.55;;;;;;;;;;4976467;28;20675;-69
2022/11/23 12:44:15;;;;;;;15.57;4.43;;;;;;;;;;4981480;28;20191;-69
2022/11/23 12:46:43;;;;;;;20.40;5.25;;;;;;;;;;4997777;28;20068;-67
2022/11/23 12:49:11;;;;;;;19.65;6.55;;;;;;;;;;4983667;28;20033;-70
2022/11/23 12:51:55;;;;;;;20.45;5.57;;;;;;;;;;4986065;28;20302;-69
2022/11/23 12:54:33;;;;;;;24.75;10.35;;;;;;;;;;5011510;28;20096;-71
2022/11/23 12:56:58;;;;;;;25.27;9.55;;;;;;;;;;4995843;28;20122;-69
2022/11/23 12:59:25;;;;;;;26.05;7.97;;;;;;;;;;5006591;28;20033;-69
2022/11/23 13:01:58;;;;;;;18.02;6.32;;;;;;;;;;5005492;28;20037;-71
2022/11/23 13:04:25;;;;;;;12.60;4.80;;;;;;;;;;5006485;28;20822;-68
2022/11/23 13:07:21;;;;;;;20.60;6.13;;;;;;;;;;4999217;28;20610;-70
2022/11/23 13:10:13;;;;;;;21.75;6.32;;;;;;;;;;5002897;28;20045;-71
2022/11/23 13:12:38;;;;;;;22.08;7.50;;;;;;;;;;5013888;28;20059;-68
2022/11/23 13:15:21;;;;;;;21.58;7.22;;;;;;;;;;5002590;28;20217;-72
2022/11/23 13:17:58;;;;;;;29.08;10.75;;;;;;;;;;4997098;28;20039;-70
2022/11/23 13:20:40;;;;;;;23.88;11.23;;;;;;;;;;4977684;28;20037;-72
2022/11/23 13:23:06;;;;;;;19.75;6.20;;;;;;;;;;4983512;28;20191;-72
2022/11/23 13:25:33;;;;;;;21.77;6.57;;;;;;;;;;4981564;28;20282;-70
2022/11/23 13:28:00;;;;;;;23.83;6.40;;;;;;;;;;4989693;28;20431;-73
2022/11/23 13:30:36;;;;;;;15.32;5.20;;;;;;;;;;4988452;28;20029;-73
2022/11/23 13:33:22;;;;;;;16.27;5.78;;;;;;;;;;5009311;28;20041;-70
2022/11/23 13:35:50;;;;;;;15.88;5.53;;;;;;;;;;5025728;28;20576;-73
2022/11/23 13:38:19;;;;;;;;;;;;;;;;;;5006328;28;20352;-67
2022/11/23 13:40:45;;;;;;;21.85;6.05;;;;;;;;;;5002358;28;19920;-67
2022/11/23 13:43:20;;;;;;;32.03;12.98;;;;;;;;;;5002485;28;20130;-68
2022/11/23 13:46:06;;;;;;;23.85;8.77;;;;;;;;;;5000353;28;20833;-68
2022/11/23 13:48:40;;;;;;;27.67;9.88;;;;;;;;;;4998276;28;20215;-68
2022/11/23 13:51:08;;;;;;;20.45;7.30;;;;;;;;;;5002474;28;20033;-68
2022/11/23 13:53:35;;;;;;;31.02;7.75;;;;;;;;;;5006900;28;20828;-77
2022/11/23 13:56:19;;;;;;;31.23;9.57;;;;;;;;;;5001498;28;20079;-71
2022/11/23 13:58:53;;;;;;;35.05;11.30;;;;;;;;;;5002895;28;20037;-70
2022/11/23 14:01:39;;;;;;;24.13;8.32;;;;;;;;;;5001889;28;20639;-71
2022/11/23 14:04:20;;;;;;;27.42;9.45;;;;;;;;;;5000439;28;20150;-66
2022/11/23 14:06:50;;;;;;;20.70;6.80;;;;;;;;;;4997448;28;20571;-67
2022/11/23 14:09:15;;;;;;;26.75;8.18;;;;;;;;;;5001751;28;22216;-68
2022/11/23 14:11:50;;;;;;;29.35;9.82;;;;;;;;;;4998780;28;20029;-67
2022/11/23 14:14:17;;;;;;;18.13;5.60;;;;;;;;;;5000070;28;20794;-69
2022/11/23 14:16:43;;;;;;;22.95;8.57;;;;;;;;;;4995299;28;20040;-70
2022/11/23 14:19:11;;;;;;;31.45;11.50;;;;;;;;;;5000261;28;20040;-69
2022/11/23 14:21:47;;;;;;;53.67;19.63;;;;;;;;;;5000685;28;20033;-69
2022/11/23 14:24:21;;;;;;;34.53;12.65;;;;;;;;;;4999706;28;20033;-69
2022/11/23 14:27:04;;;;;;;29.92;9.57;;;;;;;;;;4979378;28;20068;-68
2022/11/23 14:29:44;;;;;;;28.00;7.82;;;;;;;;;;5005964;28;20041;-67
2022/11/23 14:32:30;;;;;;;26.17;8.23;;;;;;;;;;4996389;28;20087;-69
2022/11/23 14:34:56;;;;;;;27.35;8.05;;;;;;;;;;4997148;28;20136;-68
2022/11/23 14:37:24;;;;;;;24.13;7.13;;;;;;;;;;5000193;28;20558;-68
2022/11/23 14:39:56;;;;;;;25.17;6.78;;;;;;;;;;5000829;28;20044;-68
2022/11/23 14:42:24;;;;;;;23.57;9.30;;;;;;;;;;4997721;28;20033;-69
2022/11/23 14:44:51;;;;;;;39.05;10.27;;;;;;;;;;4995290;28;20040;-68
2022/11/23 14:47:24;;;;;;;35.85;9.57;;;;;;;;;;4998701;28;20576;-72
2022/11/23 14:49:50;;;;;;;22.77;7.00;;;;;;;;;;4998267;28;20037;-72
2022/11/23 14:52:17;;;;;;;35.03;9.93;;;;;;;;;;4998966;28;20763;-72
2022/11/23 14:54:46;;;;;;;19.73;5.53;;;;;;;;;;5013042;28;20045;-71
2022/11/23 14:57:23;;;;;;;27.35;7.85;;;;;;;;;;4985142;28;20055;-71
2022/11/23 14:59:58;;;;;;;21.02;7.05;;;;;;;;;;5001605;28;20503;-71
2022/11/23 15:02:32;;;;;;;18.55;6.45;;;;;;;;;;4998132;28;20037;-70
2022/11/23 15:05:13;;;;;;;12.75;5.22;;;;;;;;;;5002705;28;20029;-71
2022/11/23 15:07:47;;;;;;;28.80;8.40;;;;;;;;;;4998451;28;20821;-71
2022/11/23 15:10:23;;;;;;;18.35;6.32;;;;;;;;;;5001512;28;20132;-71
2022/11/23 15:12:49;;;;;;;23.63;7.10;;;;;;;;;;4999234;28;20041;-73
2022/11/23 15:15:18;;;;;;;17.40;5.60;;;;;;;;;;5029133;28;20075;-72
2022/11/23 15:17:58;;;;;;;15.82;5.70;;;;;;;;;;4996931;28;20037;-70
2022/11/23 15:20:28;;;;;;;29.45;9.57;;;;;;;;;;4980221;28;20041;-70
2022/11/23 15:22:54;;;;;;;21.75;7.95;;;;;;;;;;4980856;28;20247;-69